Time;durP1;ratioP1;P1;durP2;ratioP2;P2;SDS_P1;SDS_P2;PMS_P1;PMS_P2;Temp;Humidity;BMP_temperature;BMP_pressure;BME280_temperature;BME280_humidity;BME280_pressure;Samples;Min_cycle;Max_cycle;Signal;HPM_P1;HPM_P2
2020/12/20 00:01:23;;;;;;;5.22;4.80;;;11.80;99.90;;;;;;5007623;28;20228;-26
2020/12/20 00:03:54;;;;;;;12.07;11.13;;;11.80;99.90;;;;;;5009843;28;20216;-26
2020/12/20 00:06:24;;;;;;;4.95;3.45;;;11.80;99.90;;;;;;5003508;28;20204;-26
2020/12/20 00:08:55;;;;;;;8.00;7.00;;;11.70;99.90;;;;;;5009495;28;20204;-26
2020/12/20 00:11:25;;;;;;;3.58;2.80;;;11.70;99.90;;;;;;5009098;28;20231;-27
2020/12/20 00:13:55;;;;;;;8.50;5.45;;;11.70;99.90;;;;;;5009061;28;20213;-26
2020/12/20 00:16:28;;;;;;;8.25;7.45;;;11.60;99.90;;;;;;5009417;28;20229;-26
2020/12/20 00:19:05;;;;;;;4.03;2.78;;;11.60;99.90;;;;;;5009341;28;20208;-26
2020/12/20 00:21:35;;;;;;;3.45;2.00;;;11.60;99.90;;;;;;5007100;28;20205;-26
2020/12/20 00:24:09;;;;;;;6.40;3.45;;;11.60;99.90;;;;;;5008599;28;20660;-26
2020/12/20 00:26:43;;;;;;;5.43;2.58;;;11.60;99.90;;;;;;5007775;28;20607;-26
2020/12/20 00:29:13;;;;;;;4.53;3.78;;;11.60;99.90;;;;;;4995049;28;20225;-26
2020/12/20 00:31:43;;;;;;;6.38;4.60;;;11.70;99.90;;;;;;5008607;28;20258;-26
2020/12/20 00:34:13;;;;;;;4.25;3.30;;;11.70;99.90;;;;;;5009397;28;20208;-26
2020/12/20 00:36:47;;;;;;;7.53;5.90;;;11.70;99.90;;;;;;5005994;28;20216;-26
2020/12/20 00:39:20;;;;;;;5.63;5.22;;;11.70;99.90;;;;;;5009339;28;20199;-26
2020/12/20 00:41:52;;;;;;;3.35;3.05;;;11.70;99.90;;;;;;5009165;28;20236;-25
2020/12/20 00:44:23;;;;;;;9.05;8.15;;;11.60;99.90;;;;;;5008571;28;20620;-26
2020/12/20 00:46:54;;;;;;;5.28;3.10;;;11.60;99.90;;;;;;5009320;28;20227;-25
2020/12/20 00:49:25;;;;;;;3.95;2.30;;;11.60;99.90;;;;;;5009245;28;20726;-26
2020/12/20 00:51:57;;;;;;;3.13;2.90;;;11.60;99.90;;;;;;5007311;28;20225;-26
2020/12/20 00:54:29;;;;;;;7.93;7.15;;;11.60;99.90;;;;;;5008540;28;20199;-26
2020/12/20 00:56:59;;;;;;;6.15;5.13;;;11.60;99.90;;;;;;5013318;28;20227;-26
2020/12/20 00:59:29;;;;;;;3.95;3.65;;;11.70;99.90;;;;;;5015134;28;20201;-26
2020/12/20 01:01:59;;;;;;;7.93;7.22;;;11.60;99.90;;;;;;5011019;28;20282;-27
2020/12/20 01:04:29;;;;;;;6.78;6.00;;;11.60;99.90;;;;;;5015412;28;20208;-26
2020/12/20 01:07:00;;;;;;;8.82;6.70;;;11.70;99.90;;;;;;5015410;28;20209;-26
2020/12/20 01:09:31;;;;;;;5.38;2.85;;;11.70;99.90;;;;;;5014909;28;20258;-26
2020/12/20 01:12:03;;;;;;;5.10;4.60;;;11.70;99.90;;;;;;5015521;28;20687;-26
2020/12/20 01:14:33;;;;;;;12.20;10.93;;;11.60;99.90;;;;;;5015088;28;20235;-26
2020/12/20 01:17:05;;;;;;;10.60;8.73;;;11.50;99.90;;;;;;5015733;28;20230;-26
2020/12/20 01:19:42;;;;;;;24.85;21.15;;;11.50;99.90;;;;;;5014732;28;20619;-26
2020/12/20 01:22:12;;;;;;;15.77;13.55;;;11.40;99.90;;;;;;5015302;28;20193;-26
2020/12/20 01:24:43;;;;;;;18.90;17.05;;;11.40;99.90;;;;;;5015147;28;20197;-25
2020/12/20 01:27:13;;;;;;;14.40;11.82;;;11.30;99.90;;;;;;5015464;28;20193;-26
2020/12/20 01:29:43;;;;;;;2.20;2.00;;;11.40;99.90;;;;;;5015169;28;20249;-27
2020/12/20 01:32:16;;;;;;;17.52;14.52;;;11.40;99.90;;;;;;5015281;28;20208;-27
2020/12/20 01:34:47;;;;;;;9.95;7.75;;;11.40;99.90;;;;;;5015999;28;20197;-26
2020/12/20 01:37:17;;;;;;;20.98;16.35;;;11.40;99.90;;;;;;5015803;28;20332;-26
2020/12/20 01:39:48;;;;;;;22.90;18.52;;;11.40;99.90;;;;;;5015328;28;20204;-27
2020/12/20 01:42:18;;;;;;;3.10;2.90;;;11.50;99.90;;;;;;5014813;28;20207;-27
2020/12/20 01:44:49;;;;;;;39.35;29.42;;;11.50;99.90;;;;;;5015041;28;20224;-27
2020/12/20 01:47:19;;;;;;;13.98;8.93;;;11.50;99.90;;;;;;5015234;28;20246;-27
2020/12/20 01:50:01;;;;;;;20.55;18.40;;;11.50;99.90;;;;;;5014708;28;20371;-27
2020/12/20 01:52:33;;;;;;;14.90;13.63;;;11.40;99.90;;;;;;5010546;28;20203;-28
2020/12/20 01:55:05;;;;;;;15.10;13.85;;;11.40;99.90;;;;;;5014248;28;20220;-27
2020/12/20 01:57:35;;;;;;;5.00;4.68;;;11.40;99.90;;;;;;4995376;28;20617;-27
2020/12/20 02:00:06;;;;;;;6.68;6.18;;;11.40;99.90;;;;;;5015442;28;20228;-27
2020/12/20 02:02:36;;;;;;;5.85;5.45;;;11.40;99.90;;;;;;5014816;28;20246;-26
2020/12/20 02:05:06;;;;;;;5.18;4.68;;;11.30;99.90;;;;;;5015734;28;20242;-26
2020/12/20 02:07:36;;;;;;;4.40;4.10;;;11.30;99.90;;;;;;5013187;28;20216;-27
2020/12/20 02:10:08;;;;;;;4.43;3.88;;;11.20;99.90;;;;;;5011378;28;20236;-27
2020/12/20 02:12:38;;;;;;;6.07;5.50;;;11.10;99.90;;;;;;5011599;28;20188;-27
2020/12/20 02:15:08;;;;;;;4.18;3.78;;;11.10;99.90;;;;;;5012579;28;20279;-26
2020/12/20 02:17:38;;;;;;;4.13;3.75;;;11.10;99.90;;;;;;5011282;28;20290;-27
2020/12/20 02:20:18;;;;;;;6.25;4.72;;;11.00;99.90;;;;;;5011401;28;20241;-27
2020/12/20 02:22:50;;;;;;;4.40;3.63;;;10.90;99.90;;;;;;5012164;28;20275;-26
2020/12/20 02:25:20;;;;;;;4.20;2.55;;;10.90;99.90;;;;;;5012225;28;20196;-26
2020/12/20 02:27:50;;;;;;;2.10;1.90;;;10.90;99.90;;;;;;5011231;28;20222;-27
2020/12/20 02:30:20;;;;;;;3.13;2.40;;;10.90;99.90;;;;;;5011169;28;20226;-27
2020/12/20 02:32:51;;;;;;;2.40;2.30;;;10.90;99.90;;;;;;5011518;28;20212;-26
2020/12/20 02:35:21;;;;;;;2.53;2.30;;;10.90;99.90;;;;;;5010226;28;20634;-27
2020/12/20 02:37:52;;;;;;;2.75;2.00;;;10.90;99.90;;;;;;5011205;28;20228;-28
2020/12/20 02:40:22;;;;;;;3.03;2.72;;;10.90;99.90;;;;;;5010340;28;20196;-27
2020/12/20 02:42:52;;;;;;;2.63;2.10;;;10.90;99.90;;;;;;5010496;28;20664;-26
2020/12/20 02:45:22;;;;;;;2.50;2.30;;;10.90;99.90;;;;;;5007693;28;20456;-27
2020/12/20 02:47:52;;;;;;;2.97;2.65;;;10.90;99.90;;;;;;5010650;28;20208;-27
2020/12/20 02:50:35;;;;;;;1.73;1.63;;;10.90;99.90;;;;;;5002780;28;20233;-25
2020/12/20 02:53:06;;;;;;;2.47;2.28;;;10.90;99.90;;;;;;5011641;28;20196;-25
2020/12/20 02:55:36;;;;;;;2.08;1.88;;;10.90;99.90;;;;;;5010749;28;20196;-26
2020/12/20 02:58:06;;;;;;;2.97;2.30;;;10.90;99.90;;;;;;5009537;28;20238;-27
2020/12/20 03:00:38;;;;;;;2.75;2.05;;;11.00;99.90;;;;;;5010776;28;20228;-26
2020/12/20 03:03:08;;;;;;;2.45;2.25;;;11.00;99.90;;;;;;4992562;28;20287;-27
2020/12/20 03:05:38;;;;;;;3.10;1.80;;;10.90;99.90;;;;;;4991710;28;20785;-27
2020/12/20 03:08:09;;;;;;;3.20;1.70;;;11.00;99.90;;;;;;5002160;28;20561;-27
2020/12/20 03:10:41;;;;;;;2.45;1.95;;;10.90;99.90;;;;;;5009924;28;20319;-27
2020/12/20 03:13:11;;;;;;;3.28;1.75;;;10.90;99.90;;;;;;5006828;28;20199;-26
2020/12/20 03:15:43;;;;;;;2.28;2.08;;;10.90;99.90;;;;;;5010839;28;20668;-26
2020/12/20 03:18:13;;;;;;;2.55;1.90;;;10.90;99.90;;;;;;5010730;28;20320;-25
2020/12/20 03:20:54;;;;;;;2.50;1.75;;;10.90;99.90;;;;;;5010464;28;20218;-26
2020/12/20 03:23:25;;;;;;;1.73;1.63;;;10.90;99.90;;;;;;5010172;28;20642;-25
2020/12/20 03:25:55;;;;;;;2.17;1.30;;;10.90;99.90;;;;;;5010397;28;20258;-27
2020/12/20 03:28:26;;;;;;;1.30;1.20;;;10.90;99.90;;;;;;5009739;28;20203;-27
2020/12/20 03:30:56;;;;;;;1.63;1.52;;;10.90;99.90;;;;;;5010871;28;20267;-27
2020/12/20 03:33:26;;;;;;;1.40;1.30;;;10.90;99.90;;;;;;5010567;28;20208;-25
2020/12/20 03:35:56;;;;;;;1.50;1.40;;;11.00;99.90;;;;;;5010534;28;20195;-25
2020/12/20 03:38:27;;;;;;;2.05;1.75;;;11.00;99.90;;;;;;5010005;28;20215;-26
2020/12/20 03:40:57;;;;;;;1.55;1.40;;;11.00;99.90;;;;;;5010207;28;20650;-25
2020/12/20 03:43:27;;;;;;;1.60;1.50;;;11.00;99.90;;;;;;5010269;28;20719;-25
2020/12/20 03:45:59;;;;;;;2.10;2.00;;;11.00;99.90;;;;;;5010912;28;20271;-25
2020/12/20 03:48:29;;;;;;;1.40;1.40;;;11.00;99.90;;;;;;5010627;28;20189;-25
2020/12/20 03:51:14;;;;;;;1.77;1.10;;;11.00;99.90;;;;;;5009704;28;20610;-25
2020/12/20 03:53:50;;;;;;;1.55;1.40;;;11.00;99.90;;;;;;4991269;28;20219;-26
2020/12/20 03:56:20;;;;;;;1.77;1.20;;;11.10;99.90;;;;;;5003661;28;20211;-24
2020/12/20 03:58:50;;;;;;;1.42;1.30;;;11.10;99.90;;;;;;5008994;28;20220;-25
2020/12/20 04:01:20;;;;;;;2.28;1.77;;;11.00;99.90;;;;;;5010295;28;20216;-25
2020/12/20 04:03:51;;;;;;;1.45;1.30;;;11.10;99.90;;;;;;5010534;28;20743;-25
2020/12/20 04:06:21;;;;;;;1.80;1.60;;;11.10;99.90;;;;;;5010402;28;20266;-26
2020/12/20 04:08:52;;;;;;;2.40;1.40;;;11.10;99.90;;;;;;5006931;28;20248;-26
2020/12/20 04:11:22;;;;;;;1.73;1.17;;;11.10;99.90;;;;;;5006313;28;20226;-26
2020/12/20 04:13:52;;;;;;;1.58;1.48;;;11.10;99.90;;;;;;5004090;28;20661;-26
2020/12/20 04:16:22;;;;;;;1.23;1.13;;;11.10;99.90;;;;;;5007968;28;20219;-26
2020/12/20 04:18:52;;;;;;;1.40;1.30;;;11.20;99.90;;;;;;5009876;28;20597;-26
2020/12/20 04:21:32;;;;;;;3.72;1.55;;;11.10;99.90;;;;;;4994206;28;20274;-26
2020/12/20 04:24:03;;;;;;;1.40;1.30;;;11.20;99.90;;;;;;4993105;28;20209;-28
2020/12/20 04:26:33;;;;;;;1.88;1.77;;;11.10;99.90;;;;;;5009545;28;20199;-28
2020/12/20 04:29:03;;;;;;;1.30;1.30;;;11.20;99.90;;;;;;5009937;28;20208;-27
2020/12/20 04:31:33;;;;;;;1.55;1.45;;;11.10;99.90;;;;;;5004655;28;20289;-28
2020/12/20 04:34:04;;;;;;;1.50;1.40;;;11.10;99.90;;;;;;4998373;28;20267;-27
2020/12/20 04:36:34;;;;;;;1.00;1.00;;;11.10;99.90;;;;;;5009118;28;20212;-27
2020/12/20 04:39:05;;;;;;;1.20;1.10;;;11.20;99.90;;;;;;5009105;28;20207;-27
2020/12/20 04:41:35;;;;;;;1.40;1.30;;;11.20;99.90;;;;;;5009701;28;20196;-29
2020/12/20 04:44:05;;;;;;;1.67;1.58;;;11.20;99.90;;;;;;5009776;28;20199;-27
2020/12/20 04:46:37;;;;;;;1.60;1.30;;;11.20;99.90;;;;;;5010182;28;20538;-27
2020/12/20 04:49:09;;;;;;;0.93;0.93;;;11.20;99.90;;;;;;5009702;28;20710;-27
2020/12/20 04:51:53;;;;;;;1.83;1.20;;;11.30;99.90;;;;;;5009279;28;20211;-27
2020/12/20 04:54:25;;;;;;;3.20;1.27;;;11.30;99.90;;;;;;5012604;28;20529;-29
2020/12/20 04:56:55;;;;;;;1.55;1.45;;;11.30;99.90;;;;;;5009720;28;20220;-27
2020/12/20 04:59:26;;;;;;;1.20;1.10;;;11.30;99.90;;;;;;5008695;28;20298;-27
2020/12/20 05:01:56;;;;;;;1.40;1.30;;;11.30;99.90;;;;;;5009185;28;20200;-27
2020/12/20 05:04:26;;;;;;;0.85;0.85;;;11.30;99.90;;;;;;5009460;28;20196;-27
2020/12/20 05:06:57;;;;;;;3.42;1.23;;;11.30;99.90;;;;;;5009789;28;20270;-26
2020/12/20 05:09:28;;;;;;;1.90;1.05;;;11.30;99.90;;;;;;5009747;28;20199;-27
2020/12/20 05:11:58;;;;;;;1.15;1.10;;;11.40;99.90;;;;;;5009601;28;20699;-27
2020/12/20 05:14:33;;;;;;;0.93;0.93;;;11.40;99.90;;;;;;5005813;28;20232;-27
2020/12/20 05:17:03;;;;;;;1.23;1.00;;;11.40;99.90;;;;;;5008222;28;20713;-27
2020/12/20 05:19:34;;;;;;;1.30;1.20;;;11.40;99.90;;;;;;5008759;28;20266;-27
2020/12/20 05:22:19;;;;;;;1.10;0.70;;;11.50;99.90;;;;;;5008685;28;20251;-26
2020/12/20 05:24:51;;;;;;;1.20;1.10;;;11.50;99.90;;;;;;5003349;28;20194;-27
2020/12/20 05:27:23;;;;;;;0.88;0.88;;;11.50;99.90;;;;;;5008405;28;20195;-27
2020/12/20 05:29:53;;;;;;;0.90;0.90;;;11.50;99.90;;;;;;5009226;28;20192;-26
2020/12/20 05:32:27;;;;;;;0.98;0.98;;;11.60;99.90;;;;;;5008347;28;20359;-27
2020/12/20 05:35:02;;;;;;;0.90;0.90;;;11.60;99.90;;;;;;5008645;28;20230;-27
2020/12/20 05:37:33;;;;;;;0.85;0.85;;;11.60;99.90;;;;;;5009071;28;20223;-27
2020/12/20 05:40:06;;;;;;;1.17;1.08;;;11.60;99.90;;;;;;5009589;28;20193;-27
2020/12/20 05:42:36;;;;;;;0.75;0.75;;;11.60;99.90;;;;;;5009070;28;20193;-26
2020/12/20 05:45:10;;;;;;;1.00;0.95;;;11.60;99.90;;;;;;5013550;28;20211;-26
2020/12/20 05:47:41;;;;;;;1.23;1.13;;;11.60;99.90;;;;;;5012679;28;20669;-26
2020/12/20 05:50:14;;;;;;;1.60;1.40;;;11.60;99.90;;;;;;5013435;28;20193;-26
2020/12/20 05:52:44;;;;;;;1.60;1.17;;;11.70;99.90;;;;;;5013143;28;20193;-26
2020/12/20 05:55:15;;;;;;;0.95;0.80;;;11.70;99.90;;;;;;5012083;28;20215;-26
2020/12/20 05:57:45;;;;;;;0.85;0.85;;;11.70;99.90;;;;;;5004668;28;20220;-26
2020/12/20 06:00:15;;;;;;;2.78;0.93;;;11.70;99.90;;;;;;5012043;28;20208;-26
2020/12/20 06:02:46;;;;;;;1.00;1.00;;;11.70;99.90;;;;;;5008570;28;20856;-26
2020/12/20 06:05:17;;;;;;;1.15;1.05;;;11.80;99.90;;;;;;5012464;28;20193;-26
2020/12/20 06:07:52;;;;;;;2.70;2.50;;;11.80;99.90;;;;;;5012997;28;20815;-26
2020/12/20 06:10:31;;;;;;;0.88;0.88;;;11.80;99.90;;;;;;5011966;28;20893;-26
2020/12/20 06:13:05;;;;;;;1.10;0.95;;;11.80;99.90;;;;;;5011974;28;20194;-27
2020/12/20 06:15:39;;;;;;;1.08;1.08;;;11.90;99.90;;;;;;5012082;28;20196;-26
2020/12/20 06:18:11;;;;;;;3.00;2.80;;;11.90;99.90;;;;;;5008890;28;20267;-26
2020/12/20 06:20:51;;;;;;;0.63;0.63;;;11.90;99.90;;;;;;5011493;28;20252;-26
2020/12/20 06:23:25;;;;;;;1.20;0.60;;;11.90;99.90;;;;;;5011507;28;20218;-26
2020/12/20 06:25:57;;;;;;;0.90;0.90;;;11.90;99.90;;;;;;5011248;28;20188;-27
2020/12/20 06:28:29;;;;;;;0.60;0.60;;;11.90;99.90;;;;;;5011322;28;20208;-26
2020/12/20 06:31:00;;;;;;;0.77;0.77;;;11.90;99.90;;;;;;5011848;28;20242;-27
2020/12/20 06:33:45;;;;;;;0.75;0.75;;;11.90;99.90;;;;;;5010988;28;20190;-27
2020/12/20 06:36:17;;;;;;;0.90;0.90;;;11.90;99.90;;;;;;5011342;28;20247;-27
2020/12/20 06:38:54;;;;;;;1.15;0.80;;;11.90;99.90;;;;;;5011643;28;20215;-26
2020/12/20 06:41:35;;;;;;;1.08;0.98;;;11.90;99.90;;;;;;5011369;28;20619;-27
2020/12/20 06:44:14;;;;;;;1.42;0.70;;;11.90;99.90;;;;;;5011177;28;20198;-27
2020/12/20 06:46:44;;;;;;;1.52;0.60;;;12.00;99.90;;;;;;5012159;28;20192;-26
2020/12/20 06:49:37;;;;;;;1.05;0.95;;;12.00;99.90;;;;;;5010274;28;20189;-28
2020/12/20 06:52:23;;;;;;;0.90;0.80;;;12.00;99.90;;;;;;5011813;28;20204;-27
2020/12/20 06:55:06;;;;;;;0.50;0.50;;;12.00;99.90;;;;;;5009866;28;20247;-26
2020/12/20 06:57:58;;;;;;;0.77;0.75;;;12.10;99.90;;;;;;5010026;28;20216;-27
2020/12/20 07:00:43;;;;;;;1.02;0.80;;;12.10;99.90;;;;;;5005158;28;20216;-26
2020/12/20 07:03:30;;;;;;;2.80;2.25;;;12.00;99.90;;;;;;5011729;28;20243;-26
2020/12/20 07:06:12;;;;;;;1.02;0.60;;;12.00;99.90;;;;;;5010429;28;20193;-26
2020/12/20 07:09:05;;;;;;;0.60;0.60;;;12.10;99.90;;;;;;4998787;28;20629;-26
2020/12/20 07:11:42;;;;;;;1.52;1.10;;;12.10;99.90;;;;;;5009975;28;20237;-27
2020/12/20 07:14:21;;;;;;;0.60;0.60;;;12.10;99.90;;;;;;5010527;28;20201;-26
2020/12/20 07:16:52;;;;;;;0.68;0.68;;;12.10;99.90;;;;;;5010986;28;20224;-27
2020/12/20 07:19:23;;;;;;;0.80;0.55;;;12.10;99.90;;;;;;5010625;28;20194;-26
2020/12/20 07:22:12;;;;;;;0.85;0.73;;;12.10;99.90;;;;;;5011136;28;20190;-27
2020/12/20 07:24:43;;;;;;;0.90;0.90;;;12.10;99.90;;;;;;5008289;28;20287;-27
2020/12/20 07:27:13;;;;;;;0.68;0.68;;;12.10;99.90;;;;;;5010242;28;20686;-26
2020/12/20 07:29:44;;;;;;;1.08;0.60;;;12.10;99.90;;;;;;5010248;28;20200;-26
2020/12/20 07:32:14;;;;;;;0.60;0.60;;;12.20;99.90;;;;;;5011027;28;20198;-26
2020/12/20 07:34:48;;;;;;;0.52;0.50;;;12.20;99.90;;;;;;5005301;28;20300;-26
2020/12/20 07:37:18;;;;;;;0.63;0.63;;;12.20;99.90;;;;;;5006178;28;20214;-25
2020/12/20 07:39:48;;;;;;;0.60;0.57;;;12.20;99.90;;;;;;5010417;28;20201;-26
2020/12/20 07:42:19;;;;;;;0.70;0.47;;;12.20;99.90;;;;;;5009542;28;20201;-26
2020/12/20 07:44:57;;;;;;;0.53;0.50;;;12.20;99.90;;;;;;5010416;28;20686;-26
2020/12/20 07:47:27;;;;;;;1.20;0.63;;;12.20;99.90;;;;;;5010089;28;20436;-26
2020/12/20 07:49:59;;;;;;;0.80;0.68;;;12.30;99.90;;;;;;5008402;28;20635;-26
2020/12/20 07:52:29;;;;;;;1.20;1.00;;;12.30;99.90;;;;;;5010403;28;20279;-25
2020/12/20 07:55:01;;;;;;;1.20;1.10;;;12.30;99.90;;;;;;5010313;28;20628;-26
2020/12/20 07:57:32;;;;;;;0.73;0.73;;;12.30;99.90;;;;;;5001916;28;20488;-25
2020/12/20 08:00:05;;;;;;;0.60;0.60;;;12.30;99.90;;;;;;5006982;28;20608;-30
2020/12/20 08:02:36;;;;;;;0.52;0.52;;;12.30;99.90;;;;;;4990534;28;20248;-25
2020/12/20 08:05:07;;;;;;;0.73;0.60;;;12.30;99.90;;;;;;5002063;28;20197;-26
2020/12/20 08:07:37;;;;;;;1.77;0.90;;;12.30;99.90;;;;;;4996978;28;20193;-26
2020/12/20 08:10:07;;;;;;;0.85;0.60;;;12.30;99.90;;;;;;5004669;28;20232;-26
2020/12/20 08:12:37;;;;;;;0.70;0.70;;;12.40;99.90;;;;;;5008666;28;20236;-26
2020/12/20 08:15:11;;;;;;;1.08;0.60;;;12.30;99.90;;;;;;4999032;28;20189;-26
2020/12/20 08:17:43;;;;;;;1.15;0.90;;;12.40;99.90;;;;;;5010300;28;20208;-26
2020/12/20 08:20:14;;;;;;;0.77;0.57;;;12.40;99.90;;;;;;5004276;28;20253;-26
2020/12/20 08:22:45;;;;;;;0.77;0.73;;;12.40;99.90;;;;;;5001163;28;20456;-26
2020/12/20 08:25:16;;;;;;;0.75;0.45;;;12.40;99.90;;;;;;5009156;28;20197;-26
2020/12/20 08:27:47;;;;;;;0.60;0.60;;;12.40;99.90;;;;;;5008496;28;20255;-27
2020/12/20 08:30:18;;;;;;;0.70;0.70;;;12.40;99.90;;;;;;5007493;28;20206;-26
2020/12/20 08:32:49;;;;;;;1.13;0.60;;;12.40;99.90;;;;;;5010133;28;20513;-26
2020/12/20 08:35:21;;;;;;;0.50;0.50;;;12.40;99.90;;;;;;5009001;28;20487;-26
2020/12/20 08:38:00;;;;;;;0.60;0.60;;;12.40;99.90;;;;;;5001766;28;20317;-26
2020/12/20 08:40:32;;;;;;;0.65;0.40;;;12.40;99.90;;;;;;4997718;28;20611;-26
2020/12/20 08:43:03;;;;;;;0.63;0.40;;;12.40;99.90;;;;;;5009547;28;20274;-26
2020/12/20 08:45:39;;;;;;;0.60;0.60;;;12.40;99.90;;;;;;5008212;28;20453;-27
2020/12/20 08:48:09;;;;;;;0.52;0.52;;;12.40;99.90;;;;;;5008658;28;20444;-27
2020/12/20 08:50:39;;;;;;;0.75;0.75;;;12.40;99.90;;;;;;5009710;28;20249;-27
2020/12/20 08:53:09;;;;;;;0.75;0.75;;;12.50;99.90;;;;;;5008365;28;20207;-26
2020/12/20 08:55:39;;;;;;;0.40;0.40;;;12.40;99.90;;;;;;5001675;28;20273;-25
2020/12/20 08:58:10;;;;;;;1.15;0.55;;;12.40;99.90;;;;;;5008869;28;20640;-25
2020/12/20 09:00:41;;;;;;;0.60;0.60;;;12.40;99.90;;;;;;5009136;28;20196;-25
2020/12/20 09:03:11;;;;;;;0.50;0.40;;;12.40;99.90;;;;;;5005124;28;20442;-25
2020/12/20 09:05:42;;;;;;;0.47;0.47;;;12.50;99.90;;;;;;5009933;28;20198;-26
2020/12/20 09:08:12;;;;;;;0.80;0.60;;;12.50;99.90;;;;;;5010051;28;20242;-26
2020/12/20 09:10:42;;;;;;;0.60;0.60;;;12.40;99.90;;;;;;5009429;28;20233;-26
2020/12/20 09:13:12;;;;;;;0.43;0.43;;;12.40;99.90;;;;;;5009748;28;20714;-26
2020/12/20 09:15:43;;;;;;;0.97;0.73;;;12.40;99.90;;;;;;5009219;28;20201;-27
2020/12/20 09:18:17;;;;;;;0.90;0.43;;;12.40;99.90;;;;;;5008883;28;20484;-25
2020/12/20 09:20:48;;;;;;;0.60;0.60;;;12.50;99.90;;;;;;4997986;28;20447;-25
2020/12/20 09:23:19;;;;;;;0.50;0.50;;;12.50;99.90;;;;;;5013860;28;20256;-25
2020/12/20 09:25:49;;;;;;;0.60;0.50;;;12.50;99.90;;;;;;5012004;28;20199;-25
2020/12/20 09:28:22;;;;;;;0.40;0.40;;;12.40;99.90;;;;;;5013489;28;20197;-25
2020/12/20 09:30:55;;;;;;;0.80;0.70;;;12.50;99.90;;;;;;5011336;28;20197;-25
2020/12/20 09:33:27;;;;;;;1.85;0.60;;;12.50;99.90;;;;;;5010418;28;20194;-26
2020/12/20 09:36:02;;;;;;;1.03;0.60;;;12.50;99.90;;;;;;4994787;28;20214;-26
2020/12/20 09:38:39;;;;;;;0.70;0.70;;;12.50;99.90;;;;;;5007348;28;20479;-27
2020/12/20 09:41:10;;;;;;;0.57;0.57;;;12.50;99.90;;;;;;5010318;28;20456;-27
2020/12/20 09:43:41;;;;;;;0.57;0.50;;;12.50;99.90;;;;;;5013110;28;20201;-26
2020/12/20 09:46:19;;;;;;;0.52;0.40;;;12.50;99.90;;;;;;5005252;28;20190;-26
2020/12/20 09:48:49;;;;;;;0.57;0.57;;;12.50;99.90;;;;;;5012616;28;20189;-26
2020/12/20 09:51:19;;;;;;;0.47;0.47;;;12.50;99.90;;;;;;5013049;28;20543;-26
2020/12/20 09:53:51;;;;;;;0.73;0.50;;;12.50;99.90;;;;;;5012950;28;20195;-25
2020/12/20 09:56:21;;;;;;;0.60;0.50;;;12.60;99.90;;;;;;5012037;28;20511;-26
2020/12/20 09:58:51;;;;;;;0.47;0.40;;;12.60;99.90;;;;;;5012268;28;20678;-25
2020/12/20 10:01:23;;;;;;;0.30;0.30;;;12.50;99.90;;;;;;5013468;28;20558;-26
2020/12/20 10:03:53;;;;;;;0.45;0.45;;;12.50;99.90;;;;;;5012726;28;20827;-26
2020/12/20 10:06:23;;;;;;;0.50;0.50;;;12.50;99.90;;;;;;5012533;28;20210;-26
2020/12/20 10:08:53;;;;;;;0.40;0.40;;;12.60;99.90;;;;;;5008023;28;20209;-26
2020/12/20 10:11:24;;;;;;;0.50;0.50;;;12.60;99.90;;;;;;5001870;28;20643;-26
2020/12/20 10:13:54;;;;;;;0.37;0.37;;;12.60;99.90;;;;;;5012690;28;20855;-26
2020/12/20 10:16:25;;;;;;;0.83;0.70;;;12.60;99.90;;;;;;5010387;28;20986;-26
2020/12/20 10:18:55;;;;;;;0.63;0.57;;;12.60;99.90;;;;;;5012228;28;20835;-25
2020/12/20 10:21:25;;;;;;;1.02;0.68;;;12.60;99.90;;;;;;5012161;28;20552;-25
2020/12/20 10:23:55;;;;;;;0.90;0.50;;;12.60;99.90;;;;;;5010210;28;20201;-27
2020/12/20 10:26:25;;;;;;;0.40;0.40;;;12.60;99.90;;;;;;5011076;28;20519;-30
2020/12/20 10:28:55;;;;;;;1.90;0.53;;;12.60;99.90;;;;;;5010075;28;20455;-26
2020/12/20 10:31:26;;;;;;;0.70;0.70;;;12.60;99.90;;;;;;5006938;28;20473;-26
2020/12/20 10:33:56;;;;;;;0.80;0.80;;;12.50;99.90;;;;;;5004592;28;20200;-26
2020/12/20 10:36:26;;;;;;;1.97;0.90;;;12.60;99.90;;;;;;5012225;28;20287;-26
2020/12/20 10:38:56;;;;;;;1.07;0.80;;;12.60;99.90;;;;;;5000086;28;20513;-26
2020/12/20 10:41:26;;;;;;;0.70;0.70;;;12.60;99.90;;;;;;5011507;28;20457;-26
2020/12/20 10:43:56;;;;;;;2.97;1.00;;;12.60;99.90;;;;;;5011829;28;20453;-26
2020/12/20 10:46:27;;;;;;;0.90;0.70;;;12.70;99.90;;;;;;5007380;28;20815;-26
2020/12/20 10:48:57;;;;;;;1.20;0.57;;;12.70;99.90;;;;;;5009741;28;20442;-26
2020/12/20 10:51:27;;;;;;;1.43;0.67;;;12.70;99.90;;;;;;5011066;28;20523;-26
2020/12/20 10:53:58;;;;;;;1.00;0.60;;;12.60;99.90;;;;;;5002071;28;20767;-26
2020/12/20 10:56:28;;;;;;;0.50;0.50;;;12.70;99.90;;;;;;5001239;28;20620;-26
2020/12/20 10:58:58;;;;;;;0.60;0.57;;;12.70;99.90;;;;;;5010717;28;20540;-26
2020/12/20 11:01:29;;;;;;;0.87;0.60;;;12.70;99.90;;;;;;5008514;28;20571;-26
2020/12/20 11:03:59;;;;;;;0.60;0.60;;;12.80;99.90;;;;;;5011284;28;20523;-25
2020/12/20 11:06:31;;;;;;;1.03;0.50;;;12.80;99.90;;;;;;5011110;28;20790;-26
2020/12/20 11:09:01;;;;;;;1.00;0.60;;;12.80;99.90;;;;;;5002003;28;20936;-26
2020/12/20 11:11:31;;;;;;;0.30;0.30;;;12.80;99.90;;;;;;5011004;28;20504;-26
2020/12/20 11:14:01;;;;;;;0.50;0.50;;;12.80;99.90;;;;;;5009680;28;20245;-26
2020/12/20 11:16:33;;;;;;;0.85;0.73;;;12.80;99.90;;;;;;5003651;28;20541;-26
2020/12/20 11:19:03;;;;;;;0.93;0.40;;;12.80;99.90;;;;;;4995604;28;20223;-27
2020/12/20 11:21:33;;;;;;;1.53;0.47;;;12.80;99.90;;;;;;4996846;28;20530;-25
2020/12/20 11:24:03;;;;;;;0.63;0.63;;;12.80;99.90;;;;;;5001953;28;20934;-25
2020/12/20 11:26:35;;;;;;;0.60;0.60;;;12.80;99.90;;;;;;4998652;28;20465;-25
2020/12/20 11:29:05;;;;;;;0.60;0.60;;;12.70;99.90;;;;;;5004846;28;20201;-25
2020/12/20 11:31:36;;;;;;;0.50;0.50;;;12.80;99.90;;;;;;5008147;28;20464;-25
2020/12/20 11:34:07;;;;;;;0.70;0.70;;;12.80;99.90;;;;;;5003381;28;20487;-25
2020/12/20 11:36:38;;;;;;;0.40;0.40;;;12.80;99.90;;;;;;5010748;28;20456;-26
2020/12/20 11:39:09;;;;;;;0.40;0.40;;;12.80;99.90;;;;;;4995032;28;20791;-26
2020/12/20 11:41:39;;;;;;;0.67;0.60;;;12.80;99.90;;;;;;5010603;28;20544;-26
2020/12/20 11:44:10;;;;;;;1.40;0.40;;;12.80;99.90;;;;;;5010615;28;20519;-25
2020/12/20 11:46:41;;;;;;;0.60;0.50;;;12.80;99.90;;;;;;5010700;28;20471;-25
2020/12/20 11:49:12;;;;;;;0.70;0.50;;;12.80;99.90;;;;;;5000398;28;20453;-26
2020/12/20 11:51:44;;;;;;;1.97;0.43;;;12.80;99.90;;;;;;5010926;28;20464;-26
2020/12/20 11:54:14;;;;;;;0.30;0.30;;;12.90;99.90;;;;;;5010284;28;20908;-25
2020/12/20 11:56:44;;;;;;;1.40;0.30;;;12.90;99.90;;;;;;5010078;28;20457;-26
2020/12/20 11:59:14;;;;;;;0.40;0.40;;;12.90;99.90;;;;;;5010213;28;20487;-26
2020/12/20 12:01:46;;;;;;;0.40;0.40;;;12.90;99.90;;;;;;5005850;28;20441;-25
2020/12/20 12:04:16;;;;;;;2.25;0.40;;;12.90;99.90;;;;;;5008334;28;20441;-25
2020/12/20 12:06:47;;;;;;;0.70;0.70;;;12.90;99.90;;;;;;5009075;28;20247;-25
2020/12/20 12:09:17;;;;;;;0.50;0.50;;;12.80;99.90;;;;;;4999452;28;20815;-26
2020/12/20 12:11:47;;;;;;;3.50;0.70;;;12.80;99.90;;;;;;5005762;28;20814;-26
2020/12/20 12:14:17;;;;;;;0.43;0.40;;;12.80;99.90;;;;;;5009701;28;20493;-25
2020/12/20 12:16:48;;;;;;;0.57;0.57;;;12.90;99.90;;;;;;5009999;28;20794;-25
2020/12/20 12:19:18;;;;;;;0.97;0.40;;;12.90;99.90;;;;;;5009718;28;20896;-26
2020/12/20 12:21:49;;;;;;;0.50;0.40;;;12.90;99.90;;;;;;5010294;28;20484;-26
2020/12/20 12:24:19;;;;;;;0.50;0.50;;;12.90;99.90;;;;;;5010128;28;20445;-26
2020/12/20 12:26:49;;;;;;;0.63;0.50;;;12.80;99.90;;;;;;5007237;28;20516;-27
2020/12/20 12:29:19;;;;;;;0.60;0.60;;;12.80;99.90;;;;;;5009631;28;20483;-26
2020/12/20 12:31:51;;;;;;;0.60;0.53;;;12.80;99.90;;;;;;5010096;28;20443;-26
2020/12/20 12:34:20;;;;;;;1.03;0.93;;;12.80;99.90;;;;;;5009759;28;20441;-27
2020/12/20 12:36:51;;;;;;;1.03;0.30;;;12.80;99.90;;;;;;5009728;28;20857;-26
2020/12/20 12:39:20;;;;;;;0.50;0.50;;;12.80;99.90;;;;;;5009013;28;20496;-26
2020/12/20 12:41:51;;;;;;;0.60;0.40;;;12.80;99.90;;;;;;5008844;28;20449;-26
2020/12/20 12:44:21;;;;;;;0.60;0.60;;;12.70;99.90;;;;;;5009424;28;20458;-26
2020/12/20 12:46:52;;;;;;;0.40;0.25;;;12.70;99.90;;;;;;5009762;28;20847;-26
2020/12/20 12:49:22;;;;;;;0.97;0.40;;;12.70;99.90;;;;;;5009522;28;20198;-25
2020/12/20 12:51:52;;;;;;;1.35;0.32;;;12.70;99.90;;;;;;5000188;28;20826;-25
2020/12/20 12:54:22;;;;;;;1.33;0.40;;;12.70;99.90;;;;;;5009376;28;20724;-25
2020/12/20 12:56:58;;;;;;;0.40;0.30;;;12.70;99.90;;;;;;5009682;28;20944;-25
2020/12/20 12:59:29;;;;;;;0.40;0.40;;;12.70;99.90;;;;;;5009609;28;20487;-25
2020/12/20 13:02:00;;;;;;;1.40;1.00;;;12.70;99.90;;;;;;5009929;28;20452;-25
2020/12/20 13:04:30;;;;;;;2.35;1.90;;;12.70;99.90;;;;;;5009834;28;20994;-26
2020/12/20 13:07:00;;;;;;;3.28;1.80;;;12.70;99.90;;;;;;5009536;28;20273;-26
2020/12/20 13:09:30;;;;;;;1.45;1.35;;;12.70;99.90;;;;;;5008815;28;20666;-26